LA HONDA (LAH)

Elevation: 425' · SAN GREGORIO CR basin · Operator: CAL FIRE

Query executed Saturday at 17:37:42   clock

Provisional data, subject to change.
Select a sensor type for a plot of data.

Earlier

Date   /   Time   RAIN     TEMP     REL HUM     FUEL MS     FUEL TP     WIND SP     WIND DR     PEAK WS     PEAK WD     SOLAR R     BAT VOL    
(PDT)INCHES   DEG F   %   %   DEG F   MPH   DEG   MPH   DEG   W/M^2   VOLTS  
03/27/2015 17:00 25.92 63 69 11 71 4 243 9 246 548.00 14.0
03/27/2015 18:00 25.92 60 72 10 65 3 256 7 248 338.00 13.9
03/27/2015 19:00 25.92 53 90 12 55 2 255 7 234 43.00 13.5
03/27/2015 20:00 25.92 52 94 14 53 2 262 5 211 2.00 13.3
03/27/2015 21:00 25.92 52 94 15 52 2 252 6 242 0.00 13.1
03/27/2015 22:00 25.92 52 94 16 52 3 309 7 318 0.00 13.0
03/27/2015 23:00 25.92 52 92 17 52 2 77 6 15 0.00 12.9
03/28/2015 00:00 25.92 52 94 18 52 2 15 4 48 0.00 12.8
03/28/2015 01:00 25.92 51 96 19 51 3 13 4 352 0.00 12.8
03/28/2015 02:00 25.92 49 96 20 49 3 49 5 64 0.00 12.8
03/28/2015 03:00 25.92 49 96 21 49 4 64 5 67 0.00 12.7
03/28/2015 04:00 25.92 48 98 21 49 4 49 5 39 0.00 12.7
03/28/2015 05:00 25.92 48 96 21 48 3 60 6 70 0.00 12.7
03/28/2015 06:00 25.92 47 99 22 48 3 72 5 62 0.00 12.7
03/28/2015 07:00 25.92 47 100 22 47 3 71 6 70 1.00 12.7
03/28/2015 08:00 25.92 50 99 23 48 3 77 5 105 75.00 13.2
03/28/2015 09:00 25.92 58 81 21 58 3 273 8 12 218.00 14.1
03/28/2015 10:00 25.92 64 56 19 65 8 11 13 355 423.00 13.9
03/28/2015 11:00 25.92 67 46 15 67 7 57 20 64 646.00 13.9
03/28/2015 12:00 25.92 69 35 13 76 8 58 17 16 787.00 13.7
03/28/2015 13:00 25.92 72 37 10 83 7 62 15 43 865.00 13.7
03/28/2015 14:00 25.92 76 31 10 77 6 26 13 61 884.00 13.6
03/28/2015 15:00 25.92 76 31 9 80 6 359 14 3 826.00 13.6
03/28/2015 16:00 25.92 75 43 9 85 4 247 14 345 720.00 13.5
03/28/2015 17:00 25.92 70 45 8 77 4 243 7 211 552.00 13.6

Later | Latest

Warning! This data is preliminary and subject to revision.

Show LAH Map | 24 Hours LAH Data | Plot all LAH Sensors | Daily LAH Data | LAH Info